sensor_id;sensor_type;location;lat;lon;timestamp;P1;durP1;ratioP1;P2;durP2;ratioP2
48203;SDS011;33994;50.998;5.864;2022-07-22T00:01:53;13.07;;;4.43;;
48203;SDS011;33994;50.998;5.864;2022-07-22T00:04:58;14.63;;;5.22;;
48203;SDS011;33994;50.998;5.864;2022-07-22T00:08:02;17.52;;;6.00;;
48203;SDS011;33994;50.998;5.864;2022-07-22T00:11:07;13.52;;;5.57;;
48203;SDS011;33994;50.998;5.864;2022-07-22T00:14:12;17.42;;;5.40;;
48203;SDS011;33994;50.998;5.864;2022-07-22T00:17:16;16.88;;;4.97;;
48203;SDS011;33994;50.998;5.864;2022-07-22T00:20:21;10.20;;;4.82;;
48203;SDS011;33994;50.998;5.864;2022-07-22T00:23:25;16.88;;;5.88;;
48203;SDS011;33994;50.998;5.864;2022-07-22T00:26:30;12.35;;;4.70;;
48203;SDS011;33994;50.998;5.864;2022-07-22T00:29:34;14.85;;;5.05;;
48203;SDS011;33994;50.998;5.864;2022-07-22T00:32:38;15.20;;;6.15;;
48203;SDS011;33994;50.998;5.864;2022-07-22T00:35:43;15.45;;;5.13;;
48203;SDS011;33994;50.998;5.864;2022-07-22T00:38:47;13.00;;;4.75;;
48203;SDS011;33994;50.998;5.864;2022-07-22T00:41:52;10.10;;;4.50;;
48203;SDS011;33994;50.998;5.864;2022-07-22T00:44:56;13.52;;;5.15;;
48203;SDS011;33994;50.998;5.864;2022-07-22T00:48:01;15.00;;;4.47;;
48203;SDS011;33994;50.998;5.864;2022-07-22T00:51:05;13.10;;;4.63;;
48203;SDS011;33994;50.998;5.864;2022-07-22T00:54:10;10.63;;;4.20;;
48203;SDS011;33994;50.998;5.864;2022-07-22T00:57:14;12.90;;;4.30;;
48203;SDS011;33994;50.998;5.864;2022-07-22T01:00:19;7.40;;;3.70;;
48203;SDS011;33994;50.998;5.864;2022-07-22T01:03:27;8.80;;;4.35;;
48203;SDS011;33994;50.998;5.864;2022-07-22T01:06:32;8.25;;;3.60;;
48203;SDS011;33994;50.998;5.864;2022-07-22T01:09:36;9.65;;;3.92;;
48203;SDS011;33994;50.998;5.864;2022-07-22T01:12:41;9.95;;;3.50;;
48203;SDS011;33994;50.998;5.864;2022-07-22T01:15:47;14.45;;;5.05;;
48203;SDS011;33994;50.998;5.864;2022-07-22T01:18:51;10.07;;;3.67;;
48203;SDS011;33994;50.998;5.864;2022-07-22T01:21:56;10.43;;;4.20;;
48203;SDS011;33994;50.998;5.864;2022-07-22T01:25:01;17.35;;;5.05;;
48203;SDS011;33994;50.998;5.864;2022-07-22T01:28:05;13.13;;;4.47;;
48203;SDS011;33994;50.998;5.864;2022-07-22T01:31:09;10.65;;;4.43;;
48203;SDS011;33994;50.998;5.864;2022-07-22T01:34:14;8.32;;;4.15;;
48203;SDS011;33994;50.998;5.864;2022-07-22T01:37:18;13.80;;;4.50;;
48203;SDS011;33994;50.998;5.864;2022-07-22T01:40:22;10.88;;;5.10;;
48203;SDS011;33994;50.998;5.864;2022-07-22T01:43:27;14.93;;;4.90;;
48203;SDS011;33994;50.998;5.864;2022-07-22T01:46:31;11.98;;;4.53;;
48203;SDS011;33994;50.998;5.864;2022-07-22T01:49:36;8.00;;;3.70;;
48203;SDS011;33994;50.998;5.864;2022-07-22T01:52:40;10.52;;;4.35;;
48203;SDS011;33994;50.998;5.864;2022-07-22T01:55:45;10.10;;;4.03;;
48203;SDS011;33994;50.998;5.864;2022-07-22T01:58:52;8.68;;;3.80;;
48203;SDS011;33994;50.998;5.864;2022-07-22T02:02:00;8.95;;;4.28;;
48203;SDS011;33994;50.998;5.864;2022-07-22T02:05:05;11.00;;;4.70;;
48203;SDS011;33994;50.998;5.864;2022-07-22T02:08:09;11.02;;;4.60;;
48203;SDS011;33994;50.998;5.864;2022-07-22T02:11:41;10.80;;;4.07;;
48203;SDS011;33994;50.998;5.864;2022-07-22T02:14:46;11.23;;;4.15;;
48203;SDS011;33994;50.998;5.864;2022-07-22T02:17:51;8.18;;;4.47;;
48203;SDS011;33994;50.998;5.864;2022-07-22T02:20:56;8.65;;;3.70;;
48203;SDS011;33994;50.998;5.864;2022-07-22T02:24:02;9.60;;;3.92;;
48203;SDS011;33994;50.998;5.864;2022-07-22T02:27:06;9.90;;;4.05;;
48203;SDS011;33994;50.998;5.864;2022-07-22T02:30:13;10.85;;;4.20;;
48203;SDS011;33994;50.998;5.864;2022-07-22T02:33:19;12.95;;;4.50;;
48203;SDS011;33994;50.998;5.864;2022-07-22T02:36:23;8.07;;;4.15;;
48203;SDS011;33994;50.998;5.864;2022-07-22T02:39:29;13.50;;;5.05;;
48203;SDS011;33994;50.998;5.864;2022-07-22T02:42:33;8.90;;;4.47;;
48203;SDS011;33994;50.998;5.864;2022-07-22T02:45:38;9.35;;;4.53;;
48203;SDS011;33994;50.998;5.864;2022-07-22T02:48:43;11.43;;;4.43;;
48203;SDS011;33994;50.998;5.864;2022-07-22T02:51:50;9.68;;;4.18;;
48203;SDS011;33994;50.998;5.864;2022-07-22T02:54:54;9.13;;;3.72;;
48203;SDS011;33994;50.998;5.864;2022-07-22T02:58:03;9.25;;;4.10;;
48203;SDS011;33994;50.998;5.864;2022-07-22T03:01:09;9.00;;;4.32;;
48203;SDS011;33994;50.998;5.864;2022-07-22T03:04:22;8.00;;;4.22;;
48203;SDS011;33994;50.998;5.864;2022-07-22T03:07:27;15.88;;;6.03;;
48203;SDS011;33994;50.998;5.864;2022-07-22T03:10:31;10.20;;;4.97;;
48203;SDS011;33994;50.998;5.864;2022-07-22T03:13:35;11.85;;;5.35;;
48203;SDS011;33994;50.998;5.864;2022-07-22T03:16:40;13.30;;;4.95;;
48203;SDS011;33994;50.998;5.864;2022-07-22T03:19:44;10.90;;;4.95;;
48203;SDS011;33994;50.998;5.864;2022-07-22T03:22:49;12.95;;;5.18;;
48203;SDS011;33994;50.998;5.864;2022-07-22T03:25:54;8.82;;;4.25;;
48203;SDS011;33994;50.998;5.864;2022-07-22T03:29:00;11.43;;;5.28;;
48203;SDS011;33994;50.998;5.864;2022-07-22T03:32:05;13.02;;;4.57;;
48203;SDS011;33994;50.998;5.864;2022-07-22T03:35:16;7.30;;;4.00;;
48203;SDS011;33994;50.998;5.864;2022-07-22T03:38:22;12.45;;;5.20;;
48203;SDS011;33994;50.998;5.864;2022-07-22T03:41:26;8.35;;;4.03;;
48203;SDS011;33994;50.998;5.864;2022-07-22T03:44:31;11.95;;;5.18;;
48203;SDS011;33994;50.998;5.864;2022-07-22T03:47:36;10.98;;;4.68;;
48203;SDS011;33994;50.998;5.864;2022-07-22T03:50:40;8.65;;;5.10;;
48203;SDS011;33994;50.998;5.864;2022-07-22T03:53:45;8.57;;;6.07;;
48203;SDS011;33994;50.998;5.864;2022-07-22T03:56:50;8.65;;;4.38;;
48203;SDS011;33994;50.998;5.864;2022-07-22T03:59:54;12.98;;;5.40;;
48203;SDS011;33994;50.998;5.864;2022-07-22T04:02:58;7.47;;;4.32;;
48203;SDS011;33994;50.998;5.864;2022-07-22T04:06:26;9.10;;;4.53;;
48203;SDS011;33994;50.998;5.864;2022-07-22T04:09:37;7.85;;;4.65;;
48203;SDS011;33994;50.998;5.864;2022-07-22T04:12:41;14.02;;;6.50;;
48203;SDS011;33994;50.998;5.864;2022-07-22T04:15:57;8.60;;;5.50;;
48203;SDS011;33994;50.998;5.864;2022-07-22T04:19:04;12.68;;;4.75;;
48203;SDS011;33994;50.998;5.864;2022-07-22T04:22:19;7.40;;;4.68;;
48203;SDS011;33994;50.998;5.864;2022-07-22T04:25:23;9.45;;;3.97;;
48203;SDS011;33994;50.998;5.864;2022-07-22T04:28:27;8.02;;;4.35;;
48203;SDS011;33994;50.998;5.864;2022-07-22T04:31:32;10.25;;;3.95;;
48203;SDS011;33994;50.998;5.864;2022-07-22T04:34:42;10.68;;;4.47;;
48203;SDS011;33994;50.998;5.864;2022-07-22T04:37:46;7.65;;;4.03;;
48203;SDS011;33994;50.998;5.864;2022-07-22T04:40:50;18.15;;;5.18;;
48203;SDS011;33994;50.998;5.864;2022-07-22T04:43:54;7.68;;;4.18;;
48203;SDS011;33994;50.998;5.864;2022-07-22T04:47:01;13.55;;;4.50;;
48203;SDS011;33994;50.998;5.864;2022-07-22T04:50:06;10.68;;;4.68;;
48203;SDS011;33994;50.998;5.864;2022-07-22T04:53:13;9.05;;;4.38;;
48203;SDS011;33994;50.998;5.864;2022-07-22T04:56:18;9.50;;;5.30;;
48203;SDS011;33994;50.998;5.864;2022-07-22T04:59:22;8.38;;;4.18;;
48203;SDS011;33994;50.998;5.864;2022-07-22T05:02:27;8.30;;;3.35;;
48203;SDS011;33994;50.998;5.864;2022-07-22T05:05:32;5.28;;;2.83;;
48203;SDS011;33994;50.998;5.864;2022-07-22T05:08:37;6.63;;;3.60;;
48203;SDS011;33994;50.998;5.864;2022-07-22T05:11:41;5.57;;;3.53;;
48203;SDS011;33994;50.998;5.864;2022-07-22T05:14:46;9.20;;;3.88;;
48203;SDS011;33994;50.998;5.864;2022-07-22T05:17:50;8.15;;;3.88;;
48203;SDS011;33994;50.998;5.864;2022-07-22T05:21:00;8.32;;;3.80;;
48203;SDS011;33994;50.998;5.864;2022-07-22T05:24:05;8.38;;;3.95;;
48203;SDS011;33994;50.998;5.864;2022-07-22T05:27:10;6.85;;;4.00;;
48203;SDS011;33994;50.998;5.864;2022-07-22T05:30:15;14.70;;;4.68;;
48203;SDS011;33994;50.998;5.864;2022-07-22T05:33:20;9.10;;;4.00;;
48203;SDS011;33994;50.998;5.864;2022-07-22T05:36:39;8.35;;;3.40;;
48203;SDS011;33994;50.998;5.864;2022-07-22T05:39:44;7.60;;;3.65;;
48203;SDS011;33994;50.998;5.864;2022-07-22T05:42:48;5.18;;;3.30;;
48203;SDS011;33994;50.998;5.864;2022-07-22T05:45:52;4.65;;;2.78;;
48203;SDS011;33994;50.998;5.864;2022-07-22T05:48:57;9.80;;;4.28;;
48203;SDS011;33994;50.998;5.864;2022-07-22T05:52:04;8.93;;;3.70;;
48203;SDS011;33994;50.998;5.864;2022-07-22T05:55:08;13.40;;;4.53;;
48203;SDS011;33994;50.998;5.864;2022-07-22T05:58:13;11.07;;;3.30;;
48203;SDS011;33994;50.998;5.864;2022-07-22T06:01:17;6.70;;;3.30;;
48203;SDS011;33994;50.998;5.864;2022-07-22T06:04:21;12.88;;;3.10;;
48203;SDS011;33994;50.998;5.864;2022-07-22T06:07:26;10.63;;;4.05;;
48203;SDS011;33994;50.998;5.864;2022-07-22T06:10:36;10.02;;;3.70;;
48203;SDS011;33994;50.998;5.864;2022-07-22T06:13:40;8.13;;;3.80;;
48203;SDS011;33994;50.998;5.864;2022-07-22T06:16:45;9.60;;;3.67;;
48203;SDS011;33994;50.998;5.864;2022-07-22T06:19:49;10.43;;;4.47;;
48203;SDS011;33994;50.998;5.864;2022-07-22T06:22:54;7.82;;;3.35;;
48203;SDS011;33994;50.998;5.864;2022-07-22T06:26:00;10.48;;;3.80;;
48203;SDS011;33994;50.998;5.864;2022-07-22T06:29:07;7.88;;;3.60;;
48203;SDS011;33994;50.998;5.864;2022-07-22T06:32:13;6.57;;;3.17;;
48203;SDS011;33994;50.998;5.864;2022-07-22T06:35:17;11.65;;;4.85;;
48203;SDS011;33994;50.998;5.864;2022-07-22T06:38:22;10.48;;;3.78;;
48203;SDS011;33994;50.998;5.864;2022-07-22T06:41:55;8.85;;;3.70;;
48203;SDS011;33994;50.998;5.864;2022-07-22T06:45:31;10.10;;;3.63;;
48203;SDS011;33994;50.998;5.864;2022-07-22T06:48:54;12.07;;;4.78;;
48203;SDS011;33994;50.998;5.864;2022-07-22T06:51:59;14.93;;;4.60;;
48203;SDS011;33994;50.998;5.864;2022-07-22T06:55:04;9.32;;;3.38;;
48203;SDS011;33994;50.998;5.864;2022-07-22T06:58:12;10.30;;;3.42;;
48203;SDS011;33994;50.998;5.864;2022-07-22T07:01:17;8.25;;;3.45;;
48203;SDS011;33994;50.998;5.864;2022-07-22T07:07:54;9.85;;;4.15;;
48203;SDS011;33994;50.998;5.864;2022-07-22T07:11:00;10.43;;;4.13;;
48203;SDS011;33994;50.998;5.864;2022-07-22T07:14:04;9.85;;;3.58;;
48203;SDS011;33994;50.998;5.864;2022-07-22T07:17:09;9.15;;;3.42;;
48203;SDS011;33994;50.998;5.864;2022-07-22T07:20:13;12.15;;;5.30;;
48203;SDS011;33994;50.998;5.864;2022-07-22T07:23:18;8.45;;;3.67;;
48203;SDS011;33994;50.998;5.864;2022-07-22T07:26:22;9.38;;;4.15;;
48203;SDS011;33994;50.998;5.864;2022-07-22T07:29:27;11.77;;;4.30;;
48203;SDS011;33994;50.998;5.864;2022-07-22T07:32:32;8.48;;;3.65;;
48203;SDS011;33994;50.998;5.864;2022-07-22T07:35:36;6.40;;;3.53;;
48203;SDS011;33994;50.998;5.864;2022-07-22T07:38:41;9.48;;;4.60;;
48203;SDS011;33994;50.998;5.864;2022-07-22T07:41:49;9.85;;;5.13;;
48203;SDS011;33994;50.998;5.864;2022-07-22T07:44:56;16.52;;;6.28;;
48203;SDS011;33994;50.998;5.864;2022-07-22T07:48:00;10.52;;;4.75;;
48203;SDS011;33994;50.998;5.864;2022-07-22T07:51:05;11.10;;;5.07;;
48203;SDS011;33994;50.998;5.864;2022-07-22T07:54:10;14.18;;;5.88;;
48203;SDS011;33994;50.998;5.864;2022-07-22T07:57:16;13.20;;;6.40;;
48203;SDS011;33994;50.998;5.864;2022-07-22T08:00:24;13.48;;;6.50;;
48203;SDS011;33994;50.998;5.864;2022-07-22T08:03:31;9.50;;;5.20;;
48203;SDS011;33994;50.998;5.864;2022-07-22T08:06:35;8.98;;;4.72;;
48203;SDS011;33994;50.998;5.864;2022-07-22T08:09:39;6.35;;;4.30;;
48203;SDS011;33994;50.998;5.864;2022-07-22T08:12:55;6.38;;;4.15;;
48203;SDS011;33994;50.998;5.864;2022-07-22T08:16:25;10.13;;;5.53;;
48203;SDS011;33994;50.998;5.864;2022-07-22T08:19:29;9.65;;;5.70;;
48203;SDS011;33994;50.998;5.864;2022-07-22T08:22:34;8.07;;;4.80;;
48203;SDS011;33994;50.998;5.864;2022-07-22T08:25:39;6.72;;;3.92;;
48203;SDS011;33994;50.998;5.864;2022-07-22T08:31:51;6.45;;;3.83;;
48203;SDS011;33994;50.998;5.864;2022-07-22T08:34:57;7.18;;;3.40;;
48203;SDS011;33994;50.998;5.864;2022-07-22T08:38:03;6.60;;;3.33;;
48203;SDS011;33994;50.998;5.864;2022-07-22T08:41:11;7.03;;;2.90;;
48203;SDS011;33994;50.998;5.864;2022-07-22T08:44:17;9.20;;;3.08;;
48203;SDS011;33994;50.998;5.864;2022-07-22T08:47:25;4.88;;;2.83;;
48203;SDS011;33994;50.998;5.864;2022-07-22T08:51:01;4.18;;;2.45;;
48203;SDS011;33994;50.998;5.864;2022-07-22T08:54:16;8.10;;;3.28;;
48203;SDS011;33994;50.998;5.864;2022-07-22T08:57:21;6.18;;;3.60;;
48203;SDS011;33994;50.998;5.864;2022-07-22T09:00:25;5.57;;;3.50;;
48203;SDS011;33994;50.998;5.864;2022-07-22T09:03:29;11.40;;;3.50;;
48203;SDS011;33994;50.998;5.864;2022-07-22T09:06:36;7.10;;;3.42;;
48203;SDS011;33994;50.998;5.864;2022-07-22T09:09:43;7.15;;;4.57;;
48203;SDS011;33994;50.998;5.864;2022-07-22T09:20:15;7.60;;;4.07;;
48203;SDS011;33994;50.998;5.864;2022-07-22T09:23:42;5.20;;;3.35;;
48203;SDS011;33994;50.998;5.864;2022-07-22T09:26:48;7.07;;;3.75;;
48203;SDS011;33994;50.998;5.864;2022-07-22T09:30:22;6.70;;;3.33;;
48203;SDS011;33994;50.998;5.864;2022-07-22T09:33:33;8.30;;;3.92;;
48203;SDS011;33994;50.998;5.864;2022-07-22T09:36:55;4.70;;;3.40;;
48203;SDS011;33994;50.998;5.864;2022-07-22T09:40:21;6.22;;;3.45;;
48203;SDS011;33994;50.998;5.864;2022-07-22T09:43:29;5.93;;;4.00;;
48203;SDS011;33994;50.998;5.864;2022-07-22T09:46:39;6.72;;;3.72;;
48203;SDS011;33994;50.998;5.864;2022-07-22T09:50:03;6.57;;;3.97;;
48203;SDS011;33994;50.998;5.864;2022-07-22T09:53:21;6.03;;;4.13;;
48203;SDS011;33994;50.998;5.864;2022-07-22T09:56:40;6.57;;;3.55;;
48203;SDS011;33994;50.998;5.864;2022-07-22T09:59:44;7.03;;;4.00;;
48203;SDS011;33994;50.998;5.864;2022-07-22T10:03:08;6.50;;;3.47;;
48203;SDS011;33994;50.998;5.864;2022-07-22T10:06:16;9.23;;;4.30;;
48203;SDS011;33994;50.998;5.864;2022-07-22T10:09:21;5.38;;;3.80;;
48203;SDS011;33994;50.998;5.864;2022-07-22T10:12:26;5.57;;;3.63;;
48203;SDS011;33994;50.998;5.864;2022-07-22T10:15:31;5.13;;;3.60;;
48203;SDS011;33994;50.998;5.864;2022-07-22T10:18:36;7.60;;;3.50;;
48203;SDS011;33994;50.998;5.864;2022-07-22T10:21:41;5.07;;;3.47;;
48203;SDS011;33994;50.998;5.864;2022-07-22T10:25:09;4.90;;;3.63;;
48203;SDS011;33994;50.998;5.864;2022-07-22T10:28:11;5.03;;;3.45;;
48203;SDS011;33994;50.998;5.864;2022-07-22T10:31:28;17.13;;;3.78;;
48203;SDS011;33994;50.998;5.864;2022-07-22T10:34:33;5.63;;;3.63;;
48203;SDS011;33994;50.998;5.864;2022-07-22T10:37:38;9.45;;;4.18;;
48203;SDS011;33994;50.998;5.864;2022-07-22T10:40:53;7.47;;;3.47;;
48203;SDS011;33994;50.998;5.864;2022-07-22T10:44:02;5.95;;;3.85;;
48203;SDS011;33994;50.998;5.864;2022-07-22T10:47:07;5.60;;;3.75;;
48203;SDS011;33994;50.998;5.864;2022-07-22T10:50:46;5.95;;;3.30;;
48203;SDS011;33994;50.998;5.864;2022-07-22T10:53:59;4.38;;;3.70;;
48203;SDS011;33994;50.998;5.864;2022-07-22T10:57:05;4.57;;;3.47;;
48203;SDS011;33994;50.998;5.864;2022-07-22T11:00:09;5.28;;;3.33;;
48203;SDS011;33994;50.998;5.864;2022-07-22T11:03:23;9.23;;;4.25;;
48203;SDS011;33994;50.998;5.864;2022-07-22T11:06:29;4.63;;;3.30;;
48203;SDS011;33994;50.998;5.864;2022-07-22T11:09:34;8.48;;;3.58;;
48203;SDS011;33994;50.998;5.864;2022-07-22T11:12:39;4.32;;;2.90;;
48203;SDS011;33994;50.998;5.864;2022-07-22T11:15:44;6.28;;;3.10;;
48203;SDS011;33994;50.998;5.864;2022-07-22T11:18:59;5.32;;;2.60;;
48203;SDS011;33994;50.998;5.864;2022-07-22T11:22:05;3.88;;;2.70;;
48203;SDS011;33994;50.998;5.864;2022-07-22T11:25:11;5.43;;;3.00;;
48203;SDS011;33994;50.998;5.864;2022-07-22T11:28:16;4.90;;;2.72;;
48203;SDS011;33994;50.998;5.864;2022-07-22T11:31:20;5.60;;;3.20;;
48203;SDS011;33994;50.998;5.864;2022-07-22T11:34:25;5.88;;;3.50;;
48203;SDS011;33994;50.998;5.864;2022-07-22T11:37:30;4.57;;;2.70;;
48203;SDS011;33994;50.998;5.864;2022-07-22T11:40:35;6.03;;;3.50;;
48203;SDS011;33994;50.998;5.864;2022-07-22T11:43:40;6.82;;;3.45;;
48203;SDS011;33994;50.998;5.864;2022-07-22T11:46:45;6.63;;;3.40;;
48203;SDS011;33994;50.998;5.864;2022-07-22T11:49:50;4.90;;;2.88;;
48203;SDS011;33994;50.998;5.864;2022-07-22T11:52:54;4.45;;;3.13;;
48203;SDS011;33994;50.998;5.864;2022-07-22T11:55:59;4.90;;;3.00;;
48203;SDS011;33994;50.998;5.864;2022-07-22T11:59:05;5.40;;;2.83;;
48203;SDS011;33994;50.998;5.864;2022-07-22T12:02:12;4.82;;;2.95;;
48203;SDS011;33994;50.998;5.864;2022-07-22T12:05:17;4.90;;;3.55;;
48203;SDS011;33994;50.998;5.864;2022-07-22T12:08:22;4.45;;;2.78;;
48203;SDS011;33994;50.998;5.864;2022-07-22T12:11:26;4.65;;;3.00;;
48203;SDS011;33994;50.998;5.864;2022-07-22T12:14:31;4.15;;;3.13;;
48203;SDS011;33994;50.998;5.864;2022-07-22T12:17:37;5.18;;;3.15;;
48203;SDS011;33994;50.998;5.864;2022-07-22T12:20:45;4.97;;;3.75;;
48203;SDS011;33994;50.998;5.864;2022-07-22T12:24:11;5.43;;;3.28;;
48203;SDS011;33994;50.998;5.864;2022-07-22T12:27:15;4.97;;;3.63;;
48203;SDS011;33994;50.998;5.864;2022-07-22T12:30:20;5.60;;;3.88;;
48203;SDS011;33994;50.998;5.864;2022-07-22T12:33:25;6.05;;;3.25;;
48203;SDS011;33994;50.998;5.864;2022-07-22T12:36:32;5.18;;;2.92;;
48203;SDS011;33994;50.998;5.864;2022-07-22T12:39:37;6.00;;;3.40;;
48203;SDS011;33994;50.998;5.864;2022-07-22T12:42:42;8.98;;;4.13;;
48203;SDS011;33994;50.998;5.864;2022-07-22T12:45:48;6.40;;;4.03;;
48203;SDS011;33994;50.998;5.864;2022-07-22T12:48:53;7.40;;;3.97;;
48203;SDS011;33994;50.998;5.864;2022-07-22T12:52:07;4.88;;;3.55;;
48203;SDS011;33994;50.998;5.864;2022-07-22T12:55:18;9.35;;;4.05;;
48203;SDS011;33994;50.998;5.864;2022-07-22T12:58:24;4.75;;;3.90;;
48203;SDS011;33994;50.998;5.864;2022-07-22T13:01:30;6.97;;;4.32;;
48203;SDS011;33994;50.998;5.864;2022-07-22T13:04:34;5.35;;;3.97;;
48203;SDS011;33994;50.998;5.864;2022-07-22T13:07:39;7.80;;;4.00;;
48203;SDS011;33994;50.998;5.864;2022-07-22T13:10:44;6.35;;;4.13;;
48203;SDS011;33994;50.998;5.864;2022-07-22T13:13:48;7.88;;;5.78;;
48203;SDS011;33994;50.998;5.864;2022-07-22T13:16:52;8.18;;;4.68;;
48203;SDS011;33994;50.998;5.864;2022-07-22T13:19:57;11.55;;;5.57;;
48203;SDS011;33994;50.998;5.864;2022-07-22T13:23:01;8.43;;;4.95;;
48203;SDS011;33994;50.998;5.864;2022-07-22T13:26:06;9.32;;;5.72;;
48203;SDS011;33994;50.998;5.864;2022-07-22T13:29:10;9.85;;;5.63;;
48203;SDS011;33994;50.998;5.864;2022-07-22T13:32:15;7.35;;;5.28;;
48203;SDS011;33994;50.998;5.864;2022-07-22T13:35:19;6.97;;;5.28;;
48203;SDS011;33994;50.998;5.864;2022-07-22T13:38:24;7.28;;;5.15;;
48203;SDS011;33994;50.998;5.864;2022-07-22T13:41:28;9.07;;;5.72;;
48203;SDS011;33994;50.998;5.864;2022-07-22T13:44:32;11.32;;;6.60;;
48203;SDS011;33994;50.998;5.864;2022-07-22T13:47:41;10.82;;;6.65;;
48203;SDS011;33994;50.998;5.864;2022-07-22T13:50:45;8.48;;;6.15;;
48203;SDS011;33994;50.998;5.864;2022-07-22T13:53:50;10.13;;;6.80;;
48203;SDS011;33994;50.998;5.864;2022-07-22T13:56:54;7.07;;;5.50;;
48203;SDS011;33994;50.998;5.864;2022-07-22T13:59:59;7.57;;;6.57;;
48203;SDS011;33994;50.998;5.864;2022-07-22T14:03:04;9.77;;;6.63;;
48203;SDS011;33994;50.998;5.864;2022-07-22T14:06:09;7.82;;;6.43;;
48203;SDS011;33994;50.998;5.864;2022-07-22T14:09:14;7.82;;;6.07;;
48203;SDS011;33994;50.998;5.864;2022-07-22T14:12:18;8.02;;;5.85;;
48203;SDS011;33994;50.998;5.864;2022-07-22T14:15:23;9.43;;;6.75;;
48203;SDS011;33994;50.998;5.864;2022-07-22T14:18:27;7.22;;;6.10;;
48203;SDS011;33994;50.998;5.864;2022-07-22T14:21:32;10.00;;;6.50;;
48203;SDS011;33994;50.998;5.864;2022-07-22T14:24:37;8.13;;;6.13;;
48203;SDS011;33994;50.998;5.864;2022-07-22T14:27:42;9.20;;;6.50;;
48203;SDS011;33994;50.998;5.864;2022-07-22T14:30:46;8.15;;;5.43;;
48203;SDS011;33994;50.998;5.864;2022-07-22T14:33:50;7.18;;;6.00;;
48203;SDS011;33994;50.998;5.864;2022-07-22T14:36:55;5.80;;;5.18;;
48203;SDS011;33994;50.998;5.864;2022-07-22T14:39:59;8.02;;;4.95;;
48203;SDS011;33994;50.998;5.864;2022-07-22T14:43:03;5.57;;;5.03;;
48203;SDS011;33994;50.998;5.864;2022-07-22T14:46:08;8.32;;;5.38;;
48203;SDS011;33994;50.998;5.864;2022-07-22T14:49:12;7.65;;;5.28;;
48203;SDS011;33994;50.998;5.864;2022-07-22T14:52:18;6.10;;;4.85;;
48203;SDS011;33994;50.998;5.864;2022-07-22T14:55:23;8.95;;;5.90;;
48203;SDS011;33994;50.998;5.864;2022-07-22T14:58:27;9.85;;;5.18;;
48203;SDS011;33994;50.998;5.864;2022-07-22T15:01:31;7.25;;;5.43;;
48203;SDS011;33994;50.998;5.864;2022-07-22T15:04:36;7.20;;;4.97;;
48203;SDS011;33994;50.998;5.864;2022-07-22T15:07:40;7.60;;;4.75;;
48203;SDS011;33994;50.998;5.864;2022-07-22T15:10:45;9.60;;;5.25;;
48203;SDS011;33994;50.998;5.864;2022-07-22T15:13:49;9.07;;;4.88;;
48203;SDS011;33994;50.998;5.864;2022-07-22T15:16:53;9.35;;;4.45;;
48203;SDS011;33994;50.998;5.864;2022-07-22T15:19:58;6.85;;;4.10;;
48203;SDS011;33994;50.998;5.864;2022-07-22T15:23:03;6.85;;;5.20;;
48203;SDS011;33994;50.998;5.864;2022-07-22T15:26:08;9.05;;;5.20;;
48203;SDS011;33994;50.998;5.864;2022-07-22T15:29:12;5.75;;;4.57;;
48203;SDS011;33994;50.998;5.864;2022-07-22T15:32:17;5.95;;;4.68;;
48203;SDS011;33994;50.998;5.864;2022-07-22T15:35:21;7.85;;;4.70;;
48203;SDS011;33994;50.998;5.864;2022-07-22T15:38:26;9.85;;;4.95;;
48203;SDS011;33994;50.998;5.864;2022-07-22T15:41:31;8.95;;;4.32;;
48203;SDS011;33994;50.998;5.864;2022-07-22T15:44:38;6.57;;;4.28;;
48203;SDS011;33994;50.998;5.864;2022-07-22T15:47:42;6.25;;;4.28;;
48203;SDS011;33994;50.998;5.864;2022-07-22T15:50:47;7.88;;;4.30;;
48203;SDS011;33994;50.998;5.864;2022-07-22T15:53:51;8.18;;;5.03;;
48203;SDS011;33994;50.998;5.864;2022-07-22T15:56:56;4.75;;;3.75;;
48203;SDS011;33994;50.998;5.864;2022-07-22T16:00:20;7.80;;;4.03;;
48203;SDS011;33994;50.998;5.864;2022-07-22T16:03:24;6.40;;;4.47;;
48203;SDS011;33994;50.998;5.864;2022-07-22T16:06:28;6.43;;;4.32;;
48203;SDS011;33994;50.998;5.864;2022-07-22T16:09:32;6.90;;;4.20;;
48203;SDS011;33994;50.998;5.864;2022-07-22T16:12:37;7.50;;;3.70;;
48203;SDS011;33994;50.998;5.864;2022-07-22T16:15:41;10.07;;;4.40;;
48203;SDS011;33994;50.998;5.864;2022-07-22T16:18:45;10.93;;;3.88;;
48203;SDS011;33994;50.998;5.864;2022-07-22T16:21:51;12.52;;;3.83;;
48203;SDS011;33994;50.998;5.864;2022-07-22T16:24:55;10.73;;;4.32;;
48203;SDS011;33994;50.998;5.864;2022-07-22T16:27:59;6.38;;;3.53;;
48203;SDS011;33994;50.998;5.864;2022-07-22T16:31:05;6.25;;;4.30;;
48203;SDS011;33994;50.998;5.864;2022-07-22T16:34:09;7.93;;;3.92;;
48203;SDS011;33994;50.998;5.864;2022-07-22T16:37:14;5.03;;;3.25;;
48203;SDS011;33994;50.998;5.864;2022-07-22T16:40:18;8.45;;;4.50;;
48203;SDS011;33994;50.998;5.864;2022-07-22T16:43:22;8.88;;;4.20;;
48203;SDS011;33994;50.998;5.864;2022-07-22T16:46:27;7.53;;;3.85;;
48203;SDS011;33994;50.998;5.864;2022-07-22T16:49:31;6.28;;;3.40;;
48203;SDS011;33994;50.998;5.864;2022-07-22T16:52:35;9.05;;;3.88;;
48203;SDS011;33994;50.998;5.864;2022-07-22T16:55:39;10.90;;;4.32;;
48203;SDS011;33994;50.998;5.864;2022-07-22T16:58:44;9.43;;;4.50;;
48203;SDS011;33994;50.998;5.864;2022-07-22T17:01:49;6.82;;;4.25;;
48203;SDS011;33994;50.998;5.864;2022-07-22T17:04:53;6.43;;;3.42;;
48203;SDS011;33994;50.998;5.864;2022-07-22T17:07:58;6.82;;;3.78;;
48203;SDS011;33994;50.998;5.864;2022-07-22T17:11:02;7.70;;;3.97;;
48203;SDS011;33994;50.998;5.864;2022-07-22T17:14:07;10.15;;;5.75;;
48203;SDS011;33994;50.998;5.864;2022-07-22T17:17:11;12.82;;;3.92;;
48203;SDS011;33994;50.998;5.864;2022-07-22T17:20:16;11.60;;;4.95;;
48203;SDS011;33994;50.998;5.864;2022-07-22T17:23:20;6.75;;;3.70;;
48203;SDS011;33994;50.998;5.864;2022-07-22T17:26:25;7.32;;;3.75;;
48203;SDS011;33994;50.998;5.864;2022-07-22T17:29:30;7.82;;;4.05;;
48203;SDS011;33994;50.998;5.864;2022-07-22T17:32:35;6.75;;;3.42;;
48203;SDS011;33994;50.998;5.864;2022-07-22T17:35:39;7.80;;;3.10;;
48203;SDS011;33994;50.998;5.864;2022-07-22T17:38:45;8.57;;;3.50;;
48203;SDS011;33994;50.998;5.864;2022-07-22T17:41:49;8.18;;;4.07;;
48203;SDS011;33994;50.998;5.864;2022-07-22T17:44:53;9.80;;;4.05;;
48203;SDS011;33994;50.998;5.864;2022-07-22T17:47:58;10.60;;;4.78;;
48203;SDS011;33994;50.998;5.864;2022-07-22T17:51:03;6.60;;;3.60;;
48203;SDS011;33994;50.998;5.864;2022-07-22T17:54:07;10.70;;;3.58;;
48203;SDS011;33994;50.998;5.864;2022-07-22T17:57:12;8.75;;;4.10;;
48203;SDS011;33994;50.998;5.864;2022-07-22T18:00:16;10.38;;;3.97;;
48203;SDS011;33994;50.998;5.864;2022-07-22T18:03:21;7.70;;;4.43;;
48203;SDS011;33994;50.998;5.864;2022-07-22T18:06:26;6.50;;;4.40;;
48203;SDS011;33994;50.998;5.864;2022-07-22T18:09:30;7.03;;;4.10;;
48203;SDS011;33994;50.998;5.864;2022-07-22T18:12:35;10.90;;;6.70;;
48203;SDS011;33994;50.998;5.864;2022-07-22T18:15:39;11.07;;;4.00;;
48203;SDS011;33994;50.998;5.864;2022-07-22T18:18:43;6.07;;;3.85;;
48203;SDS011;33994;50.998;5.864;2022-07-22T18:21:48;9.45;;;4.80;;
48203;SDS011;33994;50.998;5.864;2022-07-22T18:24:53;9.55;;;4.93;;
48203;SDS011;33994;50.998;5.864;2022-07-22T18:27:57;10.00;;;4.30;;
48203;SDS011;33994;50.998;5.864;2022-07-22T18:31:02;8.43;;;4.20;;
48203;SDS011;33994;50.998;5.864;2022-07-22T18:34:08;9.52;;;5.20;;
48203;SDS011;33994;50.998;5.864;2022-07-22T18:37:14;13.52;;;4.50;;
48203;SDS011;33994;50.998;5.864;2022-07-22T18:40:18;9.63;;;4.40;;
48203;SDS011;33994;50.998;5.864;2022-07-22T18:43:22;9.75;;;4.25;;
48203;SDS011;33994;50.998;5.864;2022-07-22T18:46:27;12.02;;;4.63;;
48203;SDS011;33994;50.998;5.864;2022-07-22T18:49:31;7.55;;;4.22;;
48203;SDS011;33994;50.998;5.864;2022-07-22T18:52:36;8.98;;;4.18;;